Time;durP1;ratioP1;P1;durP2;ratioP2;P2;SDS_P1;SDS_P2;PMS_P1;PMS_P2;Temp;Humidity;BMP_temperature;BMP_pressure;BME280_temperature;BME280_humidity;BME280_pressure;Samples;Min_cycle;Max_cycle;Signal;HPM_P1;HPM_P2
2022/04/23 00:01:08;;;;;;;;;22.67;21.00;;;;;17.09;43.18;99126.44;5057948;28;45475;-61
2022/04/23 00:03:34;;;;;;;;;20.33;20.33;;;;;17.05;43.08;99125.00;5077642;27;45460;-61
2022/04/23 00:05:59;;;;;;;;;24.33;21.33;;;;;16.99;43.48;99130.84;5077527;28;46159;-64
2022/04/23 00:08:24;;;;;;;;;20.33;20.33;;;;;16.98;43.34;99126.50;5068132;28;45489;-62
2022/04/23 00:10:50;;;;;;;;;25.00;23.33;;;;;16.87;43.82;99111.50;5064759;28;45510;-61
2022/04/23 00:13:15;;;;;;;;;22.67;22.67;;;;;16.90;43.81;99121.84;5069844;28;45600;-62
2022/04/23 00:15:40;;;;;;;;;25.00;20.33;;;;;16.86;43.84;99122.22;5061743;28;45984;-61
2022/04/23 00:18:07;;;;;;;;;21.00;20.00;;;;;16.85;44.20;99112.59;5063423;27;50397;-60
2022/04/23 00:20:33;;;;;;;;;24.00;23.33;;;;;16.85;43.75;99112.59;5076230;28;45413;-63
2022/04/23 00:22:59;;;;;;;;;25.00;23.33;;;;;16.68;43.64;99087.41;5076830;27;45675;-62
2022/04/23 00:25:27;;;;;;;;;19.67;18.67;;;;;16.84;43.88;99109.06;5076637;27;47154;-61
2022/04/23 00:27:52;;;;;;;;;26.33;24.00;;;;;16.79;43.85;99100.66;5072165;27;45497;-62
2022/04/23 00:30:19;;;;;;;;;22.00;20.33;;;;;16.78;44.07;99107.78;5076895;27;45611;-62
2022/04/23 00:32:44;;;;;;;;;23.00;21.00;;;;;16.78;44.06;99102.47;5077177;28;45524;-60
2022/04/23 00:35:17;;;;;;;;;23.33;23.33;;;;;16.77;44.26;99106.13;5064208;27;45386;-60
2022/04/23 00:37:44;;;;;;;;;27.67;26.00;;;;;16.78;44.77;99097.16;5058421;28;45370;-63
2022/04/23 00:40:16;;;;;;;;;24.67;23.33;;;;;16.65;43.89;99090.34;5058077;28;45444;-62
2022/04/23 00:42:51;;;;;;;;;22.00;21.00;;;;;16.62;44.54;99087.94;5057894;28;45577;-59
2022/04/23 00:45:17;;;;;;;;;26.00;24.00;;;;;16.63;44.81;99094.94;5067107;27;46147;-63
2022/04/23 00:47:43;;;;;;;;;23.67;22.33;;;;;16.62;44.63;99082.66;5068700;28;45429;-62
2022/04/23 00:50:09;;;;;;;;;24.00;24.00;;;;;16.53;44.99;99069.19;5059689;28;45471;-60
2022/04/23 00:52:35;;;;;;;;;23.00;21.67;;;;;16.62;44.37;99072.03;5057628;28;45406;-61
2022/04/23 00:55:03;;;;;;;;;22.67;22.67;;;;;16.59;44.51;99064.31;5076678;28;45497;-61
2022/04/23 00:57:28;;;;;;;;;22.67;20.33;;;;;16.62;44.88;99072.84;5076957;27;45395;-61
2022/04/23 00:59:54;;;;;;;;;21.67;21.00;;;;;16.57;44.33;99061.78;5075543;27;45577;-62
2022/04/23 01:02:19;;;;;;;;;22.33;22.33;;;;;16.61;43.92;99068.53;5063302;28;45316;-61
2022/04/23 01:04:44;;;;;;;;;24.00;24.00;;;;;16.58;44.73;99063.50;5056029;28;45407;-62
2022/04/23 01:07:13;;;;;;;;;21.33;21.33;;;;;16.58;44.71;99058.19;5056256;28;45431;-62
2022/04/23 01:09:39;;;;;;;;;23.67;22.00;;;;;16.58;44.77;99060.84;5066012;28;45437;-62
2022/04/23 01:12:05;;;;;;;;;24.67;24.67;;;;;16.57;44.34;99057.31;5075843;28;45433;-61
2022/04/23 01:14:31;;;;;;;;;26.00;24.00;;;;;16.55;44.12;99051.31;5076450;28;46264;-62
2022/04/23 01:16:57;;;;;;;;;28.33;26.67;;;;;16.56;45.00;99057.47;5062976;28;45428;-59
2022/04/23 01:19:22;;;;;;;;;24.67;24.67;;;;;16.56;44.97;99049.50;5056623;28;45417;-60
2022/04/23 01:21:48;;;;;;;;;23.00;21.00;;;;;16.49;44.87;99050.97;5056391;28;45361;-62
2022/04/23 01:24:15;;;;;;;;;23.67;22.67;;;;;16.42;45.36;99049.84;5062409;28;45451;-62
2022/04/23 01:26:41;;;;;;;;;29.33;23.67;;;;;16.34;45.58;99039.88;5064578;27;45663;-61
2022/04/23 01:29:06;;;;;;;;;27.00;24.00;;;;;16.39;44.84;99048.28;5060497;28;45448;-61
2022/04/23 01:31:32;;;;;;;;;25.33;23.67;;;;;16.41;44.89;99043.66;5070406;27;45621;-61
2022/04/23 01:34:07;;;;;;;;;24.67;22.33;;;;;16.39;45.01;99045.63;5059480;28;45595;-63
2022/04/23 01:36:33;;;;;;;;;25.67;25.00;;;;;16.42;45.28;99047.19;5060391;28;45367;-61
2022/04/23 01:38:59;;;;;;;;;23.67;22.00;;;;;16.34;45.04;99047.81;5082942;27;45412;-59
2022/04/23 01:41:24;;;;;;;;;30.33;28.00;;;;;16.30;45.22;99049.03;5077920;27;45661;-61
2022/04/23 01:43:51;;;;;;;;;30.00;24.67;;;;;16.22;45.25;99044.38;5095331;27;46162;-60
2022/04/23 01:46:17;;;;;;;;;23.33;23.33;;;;;16.24;45.05;99039.78;5076164;27;45674;-62
2022/04/23 01:48:45;;;;;;;;;24.33;24.00;;;;;16.25;45.97;99036.16;5048819;28;45411;-60
2022/04/23 01:51:11;;;;;;;;;26.00;23.33;;;;;16.23;45.93;99034.63;5038592;28;45585;-60
2022/04/23 01:53:40;;;;;;;;;24.00;24.00;;;;;16.25;45.85;99035.31;5071365;28;46118;-60
2022/04/23 01:56:06;;;;;;;;;26.33;25.00;;;;;16.25;45.85;99028.19;5075929;27;45473;-60
2022/04/23 01:58:31;;;;;;;;;26.67;24.67;;;;;16.21;44.95;99031.25;5068725;28;45567;-60
2022/04/23 02:01:00;;;;;;;;;27.00;25.67;;;;;16.10;45.77;99040.09;5067925;27;45613;-61
2022/04/23 02:03:26;;;;;;;;;26.00;25.33;;;;;16.04;45.72;99028.19;5075736;27;47146;-61
2022/04/23 02:05:55;;;;;;;;;23.67;23.67;;;;;16.09;45.86;99033.09;5075839;27;45533;-60
2022/04/23 02:08:24;;;;;;;;;24.00;22.33;;;;;16.07;45.36;99027.94;5067619;27;45473;-60
2022/04/23 02:10:49;;;;;;;;;25.67;25.00;;;;;15.99;45.60;99035.69;5038204;28;45539;-61
2022/04/23 02:13:15;;;;;;;;;25.00;24.67;;;;;16.01;45.47;99020.50;5055423;28;45417;-59
2022/04/23 02:15:40;;;;;;;;;23.67;22.67;;;;;16.03;46.36;99023.00;5066331;28;45507;-63
2022/04/23 02:18:06;;;;;;;;;29.00;26.33;;;;;16.03;45.93;99021.19;5075843;27;45461;-63
2022/04/23 02:20:32;;;;;;;;;28.00;27.00;;;;;16.06;45.68;99017.44;5075654;28;45518;-63
2022/04/23 02:22:57;;;;;;;;;27.00;22.67;;;;;16.07;46.51;99008.53;5070272;28;46352;-62
2022/04/23 02:25:24;;;;;;;;;29.00;25.67;;;;;16.09;45.72;99017.19;5066955;28;45430;-61
2022/04/23 02:27:50;;;;;;;;;24.33;21.33;;;;;16.10;45.77;99009.13;5075842;27;45528;-61
2022/04/23 02:30:18;;;;;;;;;27.33;27.33;;;;;16.12;45.93;99019.63;5066500;28;45478;-62
2022/04/23 02:32:45;;;;;;;;;28.00;28.00;;;;;16.13;46.32;99022.13;5055208;28;45420;-62
2022/04/23 02:35:12;;;;;;;;;23.67;22.67;;;;;16.11;45.97;99018.75;5054526;28;45515;-62
2022/04/23 02:37:45;;;;;;;;;27.33;27.33;;;;;16.09;46.31;99012.75;5037722;28;45441;-60
2022/04/23 02:40:12;;;;;;;;;27.67;27.00;;;;;16.05;45.85;99016.63;5038434;28;45624;-61
2022/04/23 02:42:38;;;;;;;;;25.67;23.33;;;;;15.95;45.13;98998.94;5068050;28;45937;-60
2022/04/23 02:45:05;;;;;;;;;25.00;25.00;;;;;15.91;46.51;99003.69;5074435;28;45478;-60
2022/04/23 02:47:51;;;;;;;;;26.67;25.00;;;;;15.77;46.80;99002.16;5091406;27;45369;-59
2022/04/23 02:50:25;;;;;;;;;24.67;23.00;;;;;15.64;46.87;98990.84;5068706;28;45520;-61
2022/04/23 02:52:50;;;;;;;;;26.67;26.67;;;;;15.68;47.27;98997.56;5055926;27;45567;-61
2022/04/23 02:55:15;;;;;;;;;25.00;23.67;;;;;15.76;46.22;98996.97;5058191;28;45438;-62
2022/04/23 02:57:41;;;;;;;;;24.33;24.33;;;;;15.82;46.59;98996.47;5058550;28;52460;-60
2022/04/23 03:00:10;;;;;;;;;28.67;22.67;;;;;15.81;46.38;98987.69;5049449;28;45669;-62
2022/04/23 03:02:36;;;;;;;;;26.00;25.00;;;;;15.73;46.35;98987.47;5059715;28;45407;-60
2022/04/23 03:05:08;;;;;;;;;26.67;25.67;;;;;15.74;46.63;98985.66;5058662;28;45404;-61
2022/04/23 03:07:35;;;;;;;;;29.33;25.67;;;;;15.74;46.68;98980.34;5051928;28;45557;-60
2022/04/23 03:10:03;;;;;;;;;23.33;23.33;;;;;15.79;46.14;98983.47;5081413;27;45500;-61
2022/04/23 03:12:29;;;;;;;;;25.67;23.67;;;;;15.84;46.64;98990.06;5080198;27;45499;-62
2022/04/23 03:14:54;;;;;;;;;25.67;23.67;;;;;15.82;46.82;98984.03;5064639;27;45486;-62
2022/04/23 03:17:19;;;;;;;;;26.00;25.33;;;;;15.76;46.92;98975.78;5082472;27;48072;-62
2022/04/23 03:19:46;;;;;;;;;24.00;23.00;;;;;15.76;46.47;98973.97;5077949;27;45503;-59
2022/04/23 03:22:13;;;;;;;;;28.00;27.00;;;;;15.75;46.96;98977.59;5078095;28;45369;-63
2022/04/23 03:24:39;;;;;;;;;21.67;21.67;;;;;15.76;46.11;98967.81;5073753;28;45477;-60
2022/04/23 03:27:06;;;;;;;;;20.67;20.67;;;;;15.79;45.82;98970.22;5056993;28;45454;-61
2022/04/23 03:29:33;;;;;;;;;26.00;25.67;;;;;15.78;46.80;98969.38;5040525;28;45645;-61
2022/04/23 03:31:59;;;;;;;;;24.00;22.67;;;;;15.79;46.38;98972.88;5040771;28;47799;-62
2022/04/23 03:34:24;;;;;;;;;26.67;26.67;;;;;15.65;46.38;98950.97;5077775;27;45422;-60
2022/04/23 03:36:49;;;;;;;;;24.00;22.67;;;;;15.67;46.34;98951.69;5078376;27;45393;-62
2022/04/23 03:39:15;;;;;;;;;24.33;24.33;;;;;15.77;45.68;98961.53;5071862;27;45576;-61
2022/04/23 03:41:41;;;;;;;;;23.00;21.67;;;;;15.79;46.53;98962.25;5056750;28;46949;-60
2022/04/23 03:44:07;;;;;;;;;25.67;22.33;;;;;15.81;46.49;98961.16;5023411;28;45462;-66
2022/04/23 03:46:33;;;;;;;;;23.33;21.33;;;;;15.74;45.67;98949.38;5057207;28;45521;-61
2022/04/23 03:48:58;;;;;;;;;25.00;25.00;;;;;15.80;46.65;98953.34;5057704;28;45541;-62
2022/04/23 03:51:24;;;;;;;;;26.67;24.67;;;;;15.81;46.65;98955.03;5057647;28;45842;-61
2022/04/23 03:53:50;;;;;;;;;22.33;22.00;;;;;15.81;46.80;98949.72;5058687;28;45392;-60
2022/04/23 03:56:16;;;;;;;;;21.67;21.67;;;;;15.79;46.90;98944.53;5073082;27;45559;-61
2022/04/23 03:58:41;;;;;;;;;23.67;23.67;;;;;15.79;46.57;98949.84;5076583;28;45581;-59
2022/04/23 04:01:07;;;;;;;;;19.33;19.33;;;;;15.79;46.14;98949.00;5075917;27;45523;-59
2022/04/23 04:03:32;;;;;;;;;24.00;23.00;;;;;15.75;46.69;98937.00;5071049;27;45431;-60
2022/04/23 04:05:59;;;;;;;;;23.67;23.00;;;;;15.75;45.73;98939.66;5055303;28;45560;-60
2022/04/23 04:08:24;;;;;;;;;23.00;22.00;;;;;15.73;46.68;98937.09;5055812;28;45437;-61
2022/04/23 04:10:50;;;;;;;;;25.00;25.00;;;;;15.69;46.04;98930.41;5064085;28;45535;-62
2022/04/23 04:13:15;;;;;;;;;24.67;22.00;;;;;15.71;46.56;98940.84;5067838;28;45679;-62
2022/04/23 04:15:43;;;;;;;;;29.00;26.33;;;;;15.67;45.84;98933.13;5077588;27;45405;-60
2022/04/23 04:18:11;;;;;;;;;24.33;24.00;;;;;15.67;46.13;98934.94;5077698;27;45423;-60
2022/04/23 04:20:39;;;;;;;;;24.33;24.00;;;;;15.68;47.11;98928.66;5061986;27;46786;-59
2022/04/23 04:23:08;;;;;;;;;23.33;22.00;;;;;15.68;46.21;98918.94;5057271;28;45495;-59
2022/04/23 04:25:35;;;;;;;;;22.67;22.00;;;;;15.70;47.00;98928.59;5062277;28;45492;-60
2022/04/23 04:28:01;;;;;;;;;24.67;21.67;;;;;15.70;46.69;98926.75;5055322;28;45406;-60
2022/04/23 04:30:27;;;;;;;;;27.33;26.33;;;;;15.66;46.33;98926.16;5057157;27;46308;-61
2022/04/23 04:32:52;;;;;;;;;25.67;23.33;;;;;15.65;46.84;98934.22;5070424;27;45563;-61
2022/04/23 04:35:18;;;;;;;;;25.33;24.33;;;;;15.64;46.66;98932.56;5097816;27;45472;-61
2022/04/23 04:37:44;;;;;;;;;26.00;26.00;;;;;15.62;46.11;98926.53;5090553;27;45915;-59
2022/04/23 04:40:11;;;;;;;;;27.00;25.00;;;;;15.58;46.77;98922.44;5071249;27;45534;-60
2022/04/23 04:42:36;;;;;;;;;29.00;24.67;;;;;15.60;45.97;98926.66;5056570;28;45429;-61
2022/04/23 04:45:03;;;;;;;;;27.33;26.67;;;;;15.60;47.03;98921.34;5059645;27;46026;-61
2022/04/23 04:47:28;;;;;;;;;23.67;23.67;;;;;15.55;46.22;98920.88;5056652;28;45387;-59
2022/04/23 04:49:53;;;;;;;;;24.33;21.00;;;;;15.52;47.01;98918.50;5059129;28;45487;-61
2022/04/23 04:52:19;;;;;;;;;22.67;21.33;;;;;15.57;46.27;98923.41;5069848;27;45423;-62
2022/04/23 04:54:44;;;;;;;;;25.33;22.67;;;;;15.57;46.26;98924.25;5057653;28;45430;-60
2022/04/23 04:57:09;;;;;;;;;24.67;24.00;;;;;15.60;47.09;98925.81;5076348;27;45400;-60
2022/04/23 04:59:35;;;;;;;;;22.67;22.67;;;;;15.57;47.11;98929.56;5064647;27;45477;-60
2022/04/23 05:02:01;;;;;;;;;24.33;21.33;;;;;15.57;46.99;98924.25;5061073;28;45540;-60
2022/04/23 05:04:27;;;;;;;;;25.33;24.00;;;;;15.56;45.99;98927.06;5077172;28;45440;-61
2022/04/23 05:06:52;;;;;;;;;26.67;26.33;;;;;15.56;46.11;98924.41;5076724;28;45633;-62
2022/04/23 05:09:17;;;;;;;;;26.33;26.33;;;;;15.53;46.64;98916.69;5076087;28;55816;-62
2022/04/23 05:11:44;;;;;;;;;23.67;23.67;;;;;15.39;47.34;98896.63;5074270;27;45420;-61
2022/04/23 05:14:09;;;;;;;;;24.67;21.67;;;;;15.52;47.38;98926.44;5074197;27;45497;-60
2022/04/23 05:16:35;;;;;;;;;26.00;25.00;;;;;15.51;47.16;98921.28;5075535;27;45630;-61
2022/04/23 05:19:00;;;;;;;;;22.67;22.67;;;;;15.50;46.51;98924.88;5074243;27;46122;-61
2022/04/23 05:21:25;;;;;;;;;27.67;25.67;;;;;15.44;47.47;98919.13;5068906;27;45542;-59
2022/04/23 05:23:51;;;;;;;;;26.33;24.00;;;;;15.40;46.79;98911.56;5056127;28;45412;-62
2022/04/23 05:26:16;;;;;;;;;30.67;25.33;;;;;15.42;47.52;98920.22;5056430;28;45502;-62
2022/04/23 05:28:41;;;;;;;;;23.33;23.00;;;;;15.40;46.76;98916.88;5056053;28;46209;-61
2022/04/23 05:31:08;;;;;;;;;27.00;24.33;;;;;15.42;47.27;98914.91;5063394;28;45454;-61
2022/04/23 05:33:33;;;;;;;;;27.33;25.00;;;;;15.44;47.35;98915.63;5076274;27;45419;-60
2022/04/23 05:35:58;;;;;;;;;26.00;25.67;;;;;15.44;47.08;98908.53;5076203;27;45540;-62
2022/04/23 05:38:24;;;;;;;;;23.67;22.33;;;;;15.49;46.60;98910.81;5065921;27;45722;-61
2022/04/23 05:40:50;;;;;;;;;24.33;24.00;;;;;15.50;46.22;98903.69;5056078;28;45451;-60
2022/04/23 05:43:16;;;;;;;;;30.33;29.00;;;;;15.52;47.44;98909.72;5056213;28;45479;-60
2022/04/23 05:45:43;;;;;;;;;24.67;24.67;;;;;15.48;46.62;98898.53;5055877;28;45516;-61
2022/04/23 05:48:09;;;;;;;;;31.00;28.67;;;;;15.47;46.80;98899.47;5055834;28;45940;-60
2022/04/23 05:50:34;;;;;;;;;25.00;23.33;;;;;15.56;47.11;98906.69;5055887;28;45510;-60
2022/04/23 05:52:59;;;;;;;;;27.00;26.67;;;;;15.58;47.32;98907.41;5059248;28;45478;-62
2022/04/23 05:55:25;;;;;;;;;22.33;22.00;;;;;15.58;46.79;98911.84;5056625;28;45454;-62
2022/04/23 05:57:50;;;;;;;;;23.33;23.33;;;;;15.58;46.43;98911.84;5076131;27;46036;-62
2022/04/23 06:00:16;;;;;;;;;23.00;22.33;;;;;15.61;46.32;98924.88;5075362;27;45550;-63
2022/04/23 06:02:41;;;;;;;;;26.00;26.00;;;;;15.56;46.88;98927.88;5075841;27;45406;-61
2022/04/23 06:05:07;;;;;;;;;26.00;25.33;;;;;15.61;46.72;98936.31;5073998;27;45548;-62
2022/04/23 06:07:33;;;;;;;;;29.67;28.00;;;;;15.64;46.45;98930.75;5074767;28;46194;-61
2022/04/23 06:09:59;;;;;;;;;28.00;25.00;;;;;15.66;46.88;98926.16;5071601;28;45426;-61
2022/04/23 06:12:25;;;;;;;;;24.00;24.00;;;;;15.70;46.70;98931.22;5058381;27;45494;-60
2022/04/23 06:14:51;;;;;;;;;26.67;25.33;;;;;15.71;47.07;98936.38;5066382;28;45396;-59
2022/04/23 06:17:23;;;;;;;;;29.33;28.00;;;;;15.67;46.94;98933.13;5075286;28;45461;-60
2022/04/23 06:19:49;;;;;;;;;30.67;30.67;;;;;15.67;46.88;98941.09;5075680;27;45461;-61
2022/04/23 06:22:14;;;;;;;;;29.33;28.00;;;;;15.64;46.49;98937.84;5059122;28;45370;-62
2022/04/23 06:24:39;;;;;;;;;23.67;22.67;;;;;15.61;46.45;98956.66;5071006;28;45375;-62
2022/04/23 06:27:05;;;;;;;;;26.33;26.33;;;;;15.52;47.62;98928.25;5074693;27;45469;-62
2022/04/23 06:29:30;;;;;;;;;29.00;26.67;;;;;15.45;47.50;98922.63;5074723;27;45401;-60
2022/04/23 06:31:55;;;;;;;;;25.00;25.00;;;;;15.53;47.01;98943.19;5074510;27;45334;-62
2022/04/23 06:34:21;;;;;;;;;28.00;25.00;;;;;15.51;46.59;98934.53;5073452;27;48606;-62
2022/04/23 06:36:46;;;;;;;;;28.00;27.33;;;;;15.49;47.07;98933.81;5075157;27;47036;-62
2022/04/23 06:39:12;;;;;;;;;26.67;26.33;;;;;15.44;47.21;98926.22;5073733;28;45568;-61
2022/04/23 06:41:37;;;;;;;;;26.33;22.67;;;;;15.39;48.06;98917.81;5074928;27;45456;-62
2022/04/23 06:44:03;;;;;;;;;27.67;27.67;;;;;15.42;48.00;98917.56;5075343;27;45504;-62
2022/04/23 06:46:28;;;;;;;;;25.67;25.67;;;;;15.49;47.67;98918.75;5075274;27;47041;-63
2022/04/23 06:48:54;;;;;;;;;23.67;23.67;;;;;15.56;48.23;98919.94;5075390;27;45314;-61
2022/04/23 06:51:20;;;;;;;;;33.00;29.67;;;;;15.62;47.67;98934.47;5069474;27;45417;-63
2022/04/23 06:53:45;;;;;;;;;26.00;26.00;;;;;15.65;48.04;98937.72;5055017;28;45596;-61
2022/04/23 06:56:10;;;;;;;;;29.00;28.33;;;;;15.65;47.63;98923.63;5054743;28;45367;-63
2022/04/23 06:58:36;;;;;;;;;26.00;24.33;;;;;15.62;47.77;98930.03;5063376;28;45415;-61
2022/04/23 07:01:02;;;;;;;;;26.00;26.00;;;;;15.66;47.50;98925.28;5072090;27;45464;-63
2022/04/23 07:03:27;;;;;;;;;29.00;29.00;;;;;15.63;47.16;98925.56;5055802;28;45700;-61
2022/04/23 07:05:53;;;;;;;;;28.33;27.33;;;;;15.63;47.76;98930.84;5054578;28;45537;-60
2022/04/23 07:08:19;;;;;;;;;29.33;27.00;;;;;15.67;47.23;98929.66;5054431;28;45465;-60
2022/04/23 07:10:44;;;;;;;;;28.67;28.00;;;;;15.67;47.73;98934.94;5054855;28;45430;-60
2022/04/23 07:13:11;;;;;;;;;27.33;27.33;;;;;15.65;47.98;98926.28;5057450;28;45650;-61
2022/04/23 07:15:38;;;;;;;;;25.33;24.33;;;;;15.66;47.56;98926.16;5070924;28;45535;-63
2022/04/23 07:18:03;;;;;;;;;28.00;28.00;;;;;15.60;47.37;98910.75;5054275;28;45496;-61
2022/04/23 07:20:29;;;;;;;;;27.67;26.00;;;;;15.67;47.34;98927.00;5054396;28;45475;-62
2022/04/23 07:25:38;;;;;;;;;28.33;28.00;;;;;15.68;48.15;98921.59;5054339;28;45374;-60
2022/04/23 07:28:05;;;;;;;;;30.67;30.00;;;;;15.68;47.97;98921.59;5054164;28;45391;-60
2022/04/23 07:30:31;;;;;;;;;30.00;28.00;;;;;15.69;48.40;98927.75;5057242;28;45414;-59
2022/04/23 07:32:57;;;;;;;;;31.00;28.67;;;;;15.63;47.92;98920.25;5054452;28;45639;-61
2022/04/23 07:38:16;;;;;;;;;26.00;26.00;;;;;15.61;48.38;98927.50;5068499;28;45422;-61
2022/04/23 07:40:45;;;;;;;;;28.67;27.00;;;;;15.65;48.17;98934.22;5055908;28;45559;-60
2022/04/23 07:43:13;;;;;;;;;26.33;26.33;;;;;15.67;48.30;98927.84;5077416;28;45383;-59
2022/04/23 07:45:39;;;;;;;;;31.67;30.33;;;;;15.74;48.34;98927.34;5074348;28;45489;-61
2022/04/23 07:48:06;;;;;;;;;29.67;28.00;;;;;15.76;48.38;98918.28;5057563;28;45449;-61
2022/04/23 07:50:35;;;;;;;;;25.00;24.33;;;;;15.83;48.92;98918.63;5057182;28;45351;-60
2022/04/23 07:53:00;;;;;;;;;33.67;32.00;;;;;15.88;47.69;98914.63;5057611;28;45391;-62
2022/04/23 07:55:26;;;;;;;;;38.50;34.25;;;;;15.93;48.22;98910.72;5057065;28;46126;-62
2022/04/23 07:57:52;;;;;;;;;29.67;28.67;;;;;15.96;48.33;98915.78;5069468;28;46109;-62
2022/04/23 08:00:17;;;;;;;;;29.67;28.33;;;;;16.00;47.75;98917.22;5075156;27;45508;-62
2022/04/23 08:02:43;;;;;;;;;30.00;29.00;;;;;15.98;48.17;98904.06;5065171;28;45426;-62
2022/04/23 08:05:10;;;;;;;;;26.00;26.00;;;;;15.99;48.49;98910.22;5070005;28;45469;-61
2022/04/23 08:07:39;;;;;;;;;32.33;29.00;;;;;15.99;47.82;98910.22;5059729;28;45403;-61
2022/04/23 08:10:05;;;;;;;;;30.33;28.67;;;;;16.03;48.02;98909.00;5066064;28;45546;-61
2022/04/23 08:12:30;;;;;;;;;26.67;25.33;;;;;16.07;48.38;98900.66;5077078;28;45438;-61
2022/04/23 08:14:56;;;;;;;;;27.67;26.33;;;;;16.17;48.47;98916.59;5077363;27;46099;-63
2022/04/23 08:17:21;;;;;;;;;33.67;30.33;;;;;16.16;48.48;98896.34;5062365;28;45596;-61
2022/04/23 08:19:46;;;;;;;;;30.67;29.00;;;;;16.25;48.07;98900.03;5056992;28;45461;-63
2022/04/23 08:22:12;;;;;;;;;33.33;29.33;;;;;16.31;47.47;98899.53;5063151;27;45527;-61
2022/04/23 08:24:38;;;;;;;;;31.00;28.33;;;;;16.32;48.54;98890.56;5037982;28;46483;-64
2022/04/23 08:27:03;;;;;;;;;32.00;30.67;;;;;16.38;48.03;98900.66;5057375;28;45485;-61
2022/04/23 08:32:13;;;;;;;;;29.33;28.00;;;;;16.43;48.10;98889.66;5059321;28;45476;-63
2022/04/23 08:34:38;;;;;;;;;33.00;31.67;;;;;16.26;48.22;98864.59;5057374;27;45449;-65
2022/04/23 08:37:03;;;;;;;;;39.67;34.33;;;;;16.44;47.86;98897.50;5059419;28;50408;-65
2022/04/23 08:39:29;;;;;;;;;37.00;32.67;;;;;16.46;48.01;98898.16;5070755;28;45456;-63
2022/04/23 08:41:54;;;;;;;;;31.67;29.33;;;;;16.43;47.82;98887.81;5075289;28;45444;-63
2022/04/23 08:44:21;;;;;;;;;29.33;29.33;;;;;16.48;48.44;98898.06;5072805;27;45592;-67
2022/04/23 08:46:50;;;;;;;;;32.33;31.33;;;;;16.43;48.38;98887.00;5085792;27;45389;-63
2022/04/23 08:49:17;;;;;;;;;34.00;31.00;;;;;16.52;47.47;98887.03;5064961;27;45641;-63
2022/04/23 08:51:53;;;;;;;;;35.00;30.00;;;;;16.58;48.11;98888.31;5055735;28;45601;-66
2022/04/23 08:54:22;;;;;;;;;29.33;29.33;;;;;16.64;48.15;98894.91;5063420;28;46371;-68
2022/04/23 08:56:48;;;;;;;;;35.67;31.33;;;;;16.61;47.35;98896.00;5073764;27;45460;-67
2022/04/23 08:59:15;;;;;;;;;36.00;32.00;;;;;16.69;47.58;98898.00;5072511;27;45607;-62
2022/04/23 09:01:42;;;;;;;;;33.00;30.33;;;;;16.64;47.64;98887.78;5060479;27;45385;-63
2022/04/23 09:04:08;;;;;;;;;34.00;30.67;;;;;16.71;47.24;98904.84;5070106;28;46145;-63
2022/04/23 09:06:42;;;;;;;;;32.00;31.00;;;;;16.73;48.10;98894.06;5076529;28;45603;-61
2022/04/23 09:09:12;;;;;;;;;32.00;31.00;;;;;16.74;47.92;98899.25;5058610;28;45404;-61
2022/04/23 09:11:40;;;;;;;;;35.00;32.00;;;;;16.77;48.08;98893.72;5061024;28;45582;-60
2022/04/23 09:14:07;;;;;;;;;33.00;31.00;;;;;16.81;47.44;98901.41;5055370;28;45435;-63
2022/04/23 09:25:10;;;;;;;;;35.00;31.33;;;;;16.93;47.82;98897.66;5057011;28;45652;-63
2022/04/23 09:27:37;;;;;;;;;33.33;32.00;;;;;16.94;47.52;98897.53;5071857;28;45544;-62
2022/04/23 09:30:06;;;;;;;;;31.00;30.67;;;;;17.01;48.51;98889.84;5056824;28;45410;-66
2022/04/23 09:32:32;;;;;;;;;34.00;33.00;;;;;17.07;47.76;98899.94;5067230;28;45444;-61
2022/04/23 09:35:09;;;;;;;;;32.67;29.67;;;;;17.05;48.25;98880.63;5075810;28;46279;-63
2022/04/23 09:40:23;;;;;;;;;34.67;32.00;;;;;17.21;47.92;98896.84;5075712;28;45457;-62
2022/04/23 09:43:01;;;;;;;;;37.00;32.67;;;;;17.20;48.35;98886.38;5076146;27;45490;-61
2022/04/23 09:45:29;;;;;;;;;32.67;31.33;;;;;17.28;48.63;98888.34;5076034;27;45863;-61
2022/04/23 09:48:03;;;;;;;;;32.67;31.00;;;;;17.35;47.91;98886.81;5075599;27;45531;-66
2022/04/23 09:50:36;;;;;;;;;32.33;31.00;;;;;17.40;48.11;98893.38;5075079;27;45447;-61
2022/04/23 09:53:18;;;;;;;;;35.33;32.00;;;;;17.45;48.11;98888.47;5074946;27;45581;-63
2022/04/23 09:55:51;;;;;;;;;30.67;28.67;;;;;17.50;48.20;98888.06;5075162;28;46615;-62
2022/04/23 09:58:17;;;;;;;;;30.67;30.33;;;;;17.46;47.41;98876.03;5075780;27;45454;-61
2022/04/23 10:00:47;;;;;;;;;42.33;35.67;;;;;17.50;47.87;98889.91;5075709;27;45458;-62
2022/04/23 10:03:13;;;;;;;;;31.00;30.67;;;;;17.50;48.14;98888.06;5074532;28;45518;-62
2022/04/23 10:05:49;;;;;;;;;29.67;28.67;;;;;17.51;47.80;98884.41;5075746;28;46074;-62
2022/04/23 10:08:23;;;;;;;;;33.67;31.00;;;;;17.58;48.45;98882.88;5075679;27;45533;-61
2022/04/23 10:10:55;;;;;;;;;29.33;29.33;;;;;17.65;47.75;98883.16;5075636;27;45576;-62
2022/04/23 10:13:25;;;;;;;;;27.67;26.67;;;;;17.65;47.20;98892.00;5075728;27;45441;-60
2022/04/23 10:15:53;;;;;;;;;28.33;27.67;;;;;17.61;47.36;98884.44;5087638;27;46790;-61
2022/04/23 10:18:19;;;;;;;;;26.67;26.67;;;;;17.66;47.20;98887.50;5055297;28;45434;-63
2022/04/23 10:20:55;;;;;;;;;27.00;27.00;;;;;17.66;47.40;98872.38;5055373;28;45555;-59
2022/04/23 10:23:48;;;;;;;;;30.00;30.00;;;;;17.76;47.49;98875.03;5055205;28;45498;-61
2022/04/23 10:26:21;;;;;;;;;29.00;27.67;;;;;17.75;47.33;98867.19;5055033;28;47138;-60
2022/04/23 10:28:48;;;;;;;;;26.33;25.33;;;;;17.76;47.68;98876.84;5054930;28;45442;-62
2022/04/23 10:31:16;;;;;;;;;25.67;25.67;;;;;17.71;47.57;98861.34;5055297;28;45375;-61
2022/04/23 10:33:46;;;;;;;;;26.67;26.67;;;;;17.79;47.52;98879.28;5055269;28;45744;-61
2022/04/23 10:36:13;;;;;;;;;29.67;27.33;;;;;17.81;47.52;98872.81;5055331;28;46347;-61
2022/04/23 10:38:45;;;;;;;;;27.00;27.00;;;;;17.86;47.46;98865.22;5055243;28;45584;-62
2022/04/23 10:41:12;;;;;;;;;30.67;30.33;;;;;17.95;48.08;98866.22;5054858;28;45421;-60
2022/04/23 10:43:52;;;;;;;;;23.33;22.33;;;;;18.04;47.52;98857.34;5054954;28;45365;-60
2022/04/23 10:46:36;;;;;;;;;22.00;22.00;;;;;18.14;47.15;98862.66;5054873;28;45378;-62
2022/04/23 10:49:22;;;;;;;;;22.33;21.67;;;;;18.19;47.43;98862.22;5055204;28;45431;-61
2022/04/23 10:51:52;;;;;;;;;20.00;18.00;;;;;18.23;46.87;98864.44;5059982;28;45577;-67
2022/04/23 10:54:21;;;;;;;;;19.33;19.33;;;;;18.35;46.81;98861.59;5070721;28;45350;-64
2022/04/23 10:56:57;;;;;;;;;18.33;18.33;;;;;18.41;45.82;98861.84;5063838;27;46205;-65
2022/04/23 10:59:33;;;;;;;;;18.00;17.00;;;;;18.49;45.44;98864.63;5070445;27;45516;-67
2022/04/23 11:02:05;;;;;;;;;49.75;40.75;;;;;18.48;45.73;98864.75;5069715;28;45593;-68
2022/04/23 11:04:32;;;;;;;;;23.67;23.00;;;;;18.52;45.24;98871.47;5060816;27;45640;-65
2022/04/23 11:12:37;;;;;;;;;17.00;17.00;;;;;18.51;45.19;98861.78;5061509;28;45453;-65
2022/04/23 11:15:14;;;;;;;;;18.00;18.00;;;;;18.52;45.24;98861.66;5076712;27;45564;-63
2022/04/23 11:17:53;;;;;;;;;16.00;16.00;;;;;18.57;45.05;98869.22;5078414;27;46325;-64
2022/04/23 11:20:26;;;;;;;;;16.00;15.00;;;;;18.59;44.81;98867.25;5067286;27;45358;-66
2022/04/23 11:22:52;;;;;;;;;17.00;17.00;;;;;18.63;45.00;98855.31;5068644;28;45424;-68
2022/04/23 11:25:18;;;;;;;;;15.33;15.00;;;;;18.60;44.43;98855.59;5065195;28;45481;-63
2022/04/23 11:27:48;;;;;;;;;15.67;15.33;;;;;18.65;44.13;98861.31;5068759;27;45489;-63
2022/04/23 11:30:13;;;;;;;;;15.33;15.33;;;;;18.53;44.25;98834.03;5059235;27;45465;-66
2022/04/23 11:32:39;;;;;;;;;13.67;12.00;;;;;18.68;44.18;98844.22;5063411;27;45512;-66
2022/04/23 11:35:05;;;;;;;;;13.00;12.00;;;;;18.73;43.95;98840.09;5066613;27;45675;-65
2022/04/23 11:37:32;;;;;;;;;11.00;11.00;;;;;18.80;43.85;98844.88;5058457;28;46180;-65
2022/04/23 11:40:12;;;;;;;;;12.00;10.67;;;;;18.83;43.16;98840.06;5062968;28;45455;-66
2022/04/23 11:42:41;;;;;;;;;13.67;12.00;;;;;18.88;43.31;98839.63;5062314;28;45524;-64